createdAt,value
2022-09-24T00:01:40.283Z,100333.53
2022-09-24T00:04:11.540Z,100329.59
2022-09-24T00:06:44.136Z,100327.44
2022-09-24T00:09:12.225Z,100329.50
2022-09-24T00:11:40.588Z,100319.59
2022-09-24T00:14:09.030Z,100318.59
2022-09-24T00:16:40.454Z,100320.44
2022-09-24T00:19:08.139Z,100316.50
2022-09-24T00:21:37.498Z,100320.72
2022-09-24T00:24:09.066Z,100317.03
2022-09-24T00:26:51.212Z,100306.53
2022-09-24T00:29:20.748Z,100312.72
2022-09-24T00:31:48.527Z,100308.72
2022-09-24T00:34:16.312Z,100310.84
2022-09-24T00:36:44.867Z,100305.06
2022-09-24T00:39:14.404Z,100307.91
2022-09-24T00:41:44.927Z,100305.41
2022-09-24T00:44:50.693Z,100309.28
2022-09-24T00:47:27.114Z,100297.38
2022-09-24T00:50:03.717Z,100302.81
2022-09-24T00:52:31.427Z,100293.78
2022-09-24T00:55:01.119Z,100290.84
2022-09-24T00:57:29.179Z,100280.53
2022-09-24T00:59:57.669Z,100279.88
2022-09-24T01:02:25.379Z,100272.03
2022-09-24T01:04:56.572Z,100268.53
2022-09-24T01:07:25.421Z,100259.25
2022-09-24T01:09:53.222Z,100257.59
2022-09-24T01:12:33.450Z,100262.91
2022-09-24T01:15:12.483Z,100259.53
2022-09-24T01:17:50.520Z,100257.09
2022-09-24T01:20:46.269Z,100269.75
2022-09-24T01:23:37.397Z,100265.16
2022-09-24T01:26:19.950Z,100256.50
2022-09-24T01:29:06.732Z,100262.75
2022-09-24T01:31:40.963Z,100261.47
2022-09-24T01:34:12.372Z,100263.03
2022-09-24T01:36:41.442Z,100251.53
2022-09-24T01:39:10.074Z,100251.03
2022-09-24T01:41:39.986Z,100248.34
2022-09-24T01:44:07.828Z,100244.88
2022-09-24T01:46:39.400Z,100247.69
2022-09-24T01:49:07.237Z,100242.44
2022-09-24T01:51:39.733Z,100249.09
2022-09-24T01:54:12.697Z,100244.66
2022-09-24T01:56:46.348Z,100243.00
2022-09-24T01:59:17.715Z,100240.97
2022-09-24T02:01:54.181Z,100233.00
2022-09-24T02:04:23.411Z,100218.34
2022-09-24T02:06:56.268Z,100218.19
2022-09-24T02:09:30.789Z,100224.34
2022-09-24T02:12:02.806Z,100227.19
2022-09-24T02:14:33.414Z,100216.31
2022-09-24T02:17:05.252Z,100221.03
2022-09-24T02:19:37.156Z,100219.44
2022-09-24T02:22:07.146Z,100220.94
2022-09-24T02:24:43.523Z,100223.16
2022-09-24T02:27:11.367Z,100232.50
2022-09-24T02:29:39.020Z,100239.22
2022-09-24T02:32:12.097Z,100241.94
2022-09-24T02:34:43.468Z,100239.44
2022-09-24T02:37:14.034Z,100241.47
2022-09-24T02:39:41.932Z,100224.53
2022-09-24T02:42:11.656Z,100231.47
2022-09-24T02:44:39.281Z,100223.44
2022-09-24T02:47:09.055Z,100227.44
2022-09-24T02:49:36.752Z,100229.28
2022-09-24T02:52:04.580Z,100225.63
2022-09-24T02:54:32.370Z,100217.09
2022-09-24T02:57:00.063Z,100219.59
2022-09-24T02:59:27.948Z,100227.72
2022-09-24T03:01:55.708Z,100226.88
2022-09-24T03:04:25.289Z,100226.09
2022-09-24T03:06:53.380Z,100221.00
2022-09-24T03:09:21.012Z,100210.38
2022-09-24T03:11:48.606Z,100213.50
2022-09-24T03:14:16.310Z,100214.34
2022-09-24T03:16:43.926Z,100217.06
2022-09-24T03:19:11.566Z,100207.72
2022-09-24T03:21:40.577Z,100199.72
2022-09-24T03:24:08.257Z,100199.06
2022-09-24T03:26:36.175Z,100197.88
2022-09-24T03:29:04.261Z,100197.41
2022-09-24T03:31:30.956Z,100198.81
2022-09-24T03:33:59.195Z,100197.81
2022-09-24T03:36:27.246Z,100191.66
2022-09-24T03:38:57.791Z,100192.00
2022-09-24T03:41:26.673Z,100195.47
2022-09-24T03:43:54.622Z,100190.53
2022-09-24T03:46:24.854Z,100189.91
2022-09-24T03:48:52.645Z,100190.56
2022-09-24T03:51:20.924Z,100190.44
2022-09-24T03:53:49.573Z,100181.44
2022-09-24T03:56:18.546Z,100177.59
2022-09-24T03:58:47.594Z,100177.91
2022-09-24T04:01:21.815Z,100180.59
2022-09-24T04:03:49.988Z,100180.25
2022-09-24T04:06:23.390Z,100182.91
2022-09-24T04:08:53.767Z,100181.72
2022-09-24T04:11:23.100Z,100175.25
2022-09-24T04:13:50.743Z,100186.28
2022-09-24T04:16:18.713Z,100174.78
2022-09-24T04:18:48.657Z,100174.94
2022-09-24T04:21:16.360Z,100178.91
2022-09-24T04:23:44.019Z,100182.88
2022-09-24T04:26:12.442Z,100178.72
2022-09-24T04:28:41.425Z,100178.88
2022-09-24T04:31:09.290Z,100171.56
2022-09-24T04:33:36.929Z,100170.88
2022-09-24T04:36:04.559Z,100170.94
2022-09-24T04:38:32.180Z,100173.97
2022-09-24T04:41:06.298Z,100182.16
2022-09-24T04:43:34.177Z,100168.84
2022-09-24T04:46:03.420Z,100167.03
2022-09-24T04:48:31.253Z,100167.72
2022-09-24T04:50:58.922Z,100167.38
2022-09-24T04:53:26.488Z,100164.06
2022-09-24T04:55:54.122Z,100170.69
2022-09-24T04:58:21.751Z,100173.19
2022-09-24T05:00:51.132Z,100175.69
2022-09-24T05:03:21.185Z,100168.00
2022-09-24T05:05:50.042Z,100172.69
2022-09-24T05:08:17.731Z,100171.22
2022-09-24T05:10:45.280Z,100179.19
2022-09-24T05:13:13.539Z,100172.50
2022-09-24T05:15:43.304Z,100171.03
2022-09-24T05:18:11.165Z,100178.03
2022-09-24T05:20:40.169Z,100184.34
2022-09-24T05:23:08.815Z,100192.00
2022-09-24T05:25:57.093Z,100187.66
2022-09-24T05:28:23.794Z,100184.34
2022-09-24T05:30:51.505Z,100189.34
2022-09-24T05:33:19.205Z,100192.66
2022-09-24T05:35:54.331Z,100185.34
2022-09-24T05:38:21.982Z,100186.34
2022-09-24T05:40:49.684Z,100189.34
2022-09-24T05:43:19.183Z,100191.31
2022-09-24T05:45:47.504Z,100197.47
2022-09-24T05:48:15.118Z,100212.97
2022-09-24T05:50:42.735Z,100213.97
2022-09-24T05:53:11.701Z,100211.31
2022-09-24T05:55:39.549Z,100203.63
2022-09-24T05:58:08.815Z,100201.56
2022-09-24T06:00:36.992Z,100195.34
2022-09-24T06:03:07.824Z,100209.81
2022-09-24T06:05:35.812Z,100200.81
2022-09-24T06:08:03.998Z,100195.03
2022-09-24T06:10:33.578Z,100204.84
2022-09-24T06:13:01.425Z,100201.34
2022-09-24T06:15:29.209Z,100205.50
2022-09-24T06:17:56.972Z,100194.53
2022-09-24T06:20:24.933Z,100197.81
2022-09-24T06:22:56.073Z,100200.44
2022-09-24T06:25:23.663Z,100202.03
2022-09-24T06:28:00.486Z,100207.84
2022-09-24T06:30:29.624Z,100209.84
2022-09-24T06:33:02.861Z,100207.50
2022-09-24T06:35:30.435Z,100213.66
2022-09-24T06:37:58.056Z,100232.44
2022-09-24T06:40:26.711Z,100226.94
2022-09-24T06:42:55.809Z,100224.94
2022-09-24T06:45:23.629Z,100223.09
2022-09-24T06:47:54.482Z,100221.59
2022-09-24T06:50:23.302Z,100234.88
2022-09-24T06:52:51.167Z,100234.34
2022-09-24T06:55:19.634Z,100229.66
2022-09-24T06:57:47.652Z,100223.44
2022-09-24T07:00:17.454Z,100231.75
2022-09-24T07:02:45.115Z,100237.28
2022-09-24T07:05:12.702Z,100233.88
2022-09-24T07:07:41.374Z,100235.38
2022-09-24T07:10:10.569Z,100234.88
2022-09-24T07:12:38.306Z,100235.38
2022-09-24T07:15:07.009Z,100228.31
2022-09-24T07:17:36.391Z,100232.13
2022-09-24T07:20:05.082Z,100233.84
2022-09-24T07:22:32.749Z,100225.78
2022-09-24T07:25:00.424Z,100235.72
2022-09-24T07:27:28.082Z,100237.88
2022-09-24T07:29:55.977Z,100238.97
2022-09-24T07:32:28.971Z,100246.44
2022-09-24T07:34:58.848Z,100248.25
2022-09-24T07:37:26.573Z,100255.09
2022-09-24T07:39:54.177Z,100258.94
2022-09-24T07:42:21.836Z,100260.97
2022-09-24T07:44:50.565Z,100260.59
2022-09-24T07:47:18.692Z,100257.41
2022-09-24T07:49:46.427Z,100253.81
2022-09-24T07:52:15.414Z,100258.06
2022-09-24T07:54:43.007Z,100265.72
2022-09-24T07:57:13.527Z,100262.31
2022-09-24T07:59:41.715Z,100265.00
2022-09-24T08:02:16.376Z,100247.94
2022-09-24T08:04:44.552Z,100250.56
2022-09-24T08:07:12.786Z,100253.75
2022-09-24T08:09:41.797Z,100257.44
2022-09-24T08:12:10.260Z,100253.47
2022-09-24T08:14:37.921Z,100247.63
2022-09-24T08:17:05.557Z,100243.81
2022-09-24T08:19:33.779Z,100244.34
2022-09-24T08:22:01.948Z,100250.34
2022-09-24T08:24:29.837Z,100245.81
2022-09-24T08:26:59.482Z,100239.34
2022-09-24T08:29:27.051Z,100242.59
2022-09-24T08:31:54.903Z,100242.66
2022-09-24T08:34:22.574Z,100253.78
2022-09-24T08:36:50.256Z,100248.78
2022-09-24T08:39:17.896Z,100238.84
2022-09-24T08:41:56.959Z,100243.75
2022-09-24T08:44:49.213Z,100247.00
2022-09-24T08:47:34.771Z,100252.72
2022-09-24T08:50:09.343Z,100252.06
2022-09-24T08:52:49.908Z,100258.81
2022-09-24T08:55:21.535Z,100256.31
2022-09-24T08:57:56.702Z,100257.16
2022-09-24T09:00:25.962Z,100253.47
2022-09-24T09:03:02.492Z,100253.47
2022-09-24T09:05:50.327Z,100256.75
2022-09-24T09:08:52.933Z,100257.22
2022-09-24T09:11:22.657Z,100252.84
2022-09-24T09:13:55.986Z,100262.03
2022-09-24T09:16:29.039Z,100260.66
2022-09-24T09:19:01.592Z,100266.25
2022-09-24T09:21:35.757Z,100266.38
2022-09-24T09:24:05.958Z,100262.00
2022-09-24T09:26:34.444Z,100257.41
2022-09-24T09:29:02.695Z,100257.00
2022-09-24T09:31:44.465Z,100248.47
2022-09-24T09:34:29.745Z,100253.94
2022-09-24T09:37:11.377Z,100251.59
2022-09-24T09:39:46.591Z,100242.53
2022-09-24T09:42:27.147Z,100253.38
2022-09-24T09:44:55.375Z,100259.84
2022-09-24T09:47:40.029Z,100255.09
2022-09-24T09:50:16.160Z,100261.59
2022-09-24T09:52:43.768Z,100259.81
2022-09-24T09:55:22.328Z,100258.97
2022-09-24T09:57:51.596Z,100253.09
2022-09-24T10:00:34.703Z,100250.13
2022-09-24T10:03:05.138Z,100256.13
2022-09-24T10:05:32.925Z,100254.41
2022-09-24T10:08:00.908Z,100250.09
2022-09-24T10:10:30.274Z,100253.00
2022-09-24T10:13:09.093Z,100245.41
2022-09-24T10:15:49.369Z,100246.41
2022-09-24T10:18:24.528Z,100239.03
2022-09-24T10:20:52.464Z,100236.19
2022-09-24T10:23:22.824Z,100242.00
2022-09-24T10:25:53.545Z,100243.22
2022-09-24T10:28:39.280Z,100246.34
2022-09-24T10:31:13.280Z,100245.75
2022-09-24T10:33:45.136Z,100241.06
2022-09-24T10:36:17.407Z,100234.69
2022-09-24T10:38:45.775Z,100231.09
2022-09-24T10:41:26.025Z,100219.56
2022-09-24T10:43:56.559Z,100217.53
2022-09-24T10:46:51.973Z,100215.28
2022-09-24T10:49:34.956Z,100211.78
2022-09-24T10:52:10.690Z,100207.03
2022-09-24T10:54:51.545Z,100205.44
2022-09-24T10:57:30.206Z,100201.56
2022-09-24T11:00:05.515Z,100198.22
2022-09-24T11:03:03.138Z,100190.72
2022-09-24T11:05:36.893Z,100198.94
2022-09-24T11:08:23.363Z,100188.63
2022-09-24T11:11:19.392Z,100192.31
2022-09-24T11:13:58.870Z,100203.03
2022-09-24T11:16:51.625Z,100196.56
2022-09-24T11:19:37.293Z,100195.00
2022-09-24T11:22:13.947Z,100203.31
2022-09-24T11:25:10.153Z,100212.66
2022-09-24T11:28:04.092Z,100216.63
2022-09-24T11:30:47.477Z,100215.00
2022-09-24T11:33:28.949Z,100203.81
2022-09-24T11:36:11.714Z,100197.44
2022-09-24T11:38:59.867Z,100201.34
2022-09-24T11:41:40.693Z,100193.88
2022-09-24T11:44:39.922Z,100190.59
2022-09-24T11:47:26.122Z,100197.00
2022-09-24T11:50:12.137Z,100203.44
2022-09-24T11:52:45.875Z,100200.34
2022-09-24T11:55:19.951Z,100190.41
2022-09-24T11:57:54.895Z,100183.78
2022-09-24T12:00:23.070Z,100184.19
2022-09-24T12:02:53.507Z,100186.66
2022-09-24T12:05:29.524Z,100180.09
2022-09-24T12:08:02.801Z,100166.44
2022-09-24T12:10:36.359Z,100162.28
2022-09-24T12:13:13.413Z,100157.50
2022-09-24T12:15:49.523Z,100152.72
2022-09-24T12:18:22.291Z,100151.28
2022-09-24T12:20:53.896Z,100146.06
2022-09-24T12:23:28.057Z,100159.56
2022-09-24T12:26:00.613Z,100152.75
2022-09-24T12:28:53.362Z,100148.63
2022-09-24T12:31:47.037Z,100150.47
2022-09-24T12:34:22.825Z,100148.59
2022-09-24T12:37:01.922Z,100151.91
2022-09-24T12:39:36.705Z,100154.38
2022-09-24T12:42:09.538Z,100137.84
2022-09-24T12:44:43.268Z,100142.41
2022-09-24T12:47:19.624Z,100144.66
2022-09-24T12:49:53.051Z,100134.13
2022-09-24T12:52:26.535Z,100132.41
2022-09-24T12:55:03.178Z,100138.97
2022-09-24T12:57:36.536Z,100141.63
2022-09-24T13:00:26.615Z,100144.38
2022-09-24T13:02:55.031Z,100142.16
2022-09-24T13:05:28.741Z,100136.59
2022-09-24T13:08:00.019Z,100138.63
2022-09-24T13:10:30.004Z,100135.28
2022-09-24T13:13:00.774Z,100128.28
2022-09-24T13:15:36.531Z,100130.31
2022-09-24T13:18:08.095Z,100132.84
2022-09-24T13:20:37.839Z,100128.47
2022-09-24T13:23:31.765Z,100120.38
2022-09-24T13:26:03.729Z,100124.91
2022-09-24T13:28:38.619Z,100126.34
2022-09-24T13:31:13.941Z,100119.91
2022-09-24T13:33:45.308Z,100119.03
2022-09-24T13:36:17.039Z,100120.00
2022-09-24T13:38:54.673Z,100116.94
2022-09-24T13:41:30.885Z,100111.41
2022-09-24T13:44:04.952Z,100111.00
2022-09-24T13:46:35.997Z,100119.81
2022-09-24T13:49:11.215Z,100123.94
2022-09-24T13:51:42.019Z,100126.91
2022-09-24T13:54:18.761Z,100120.88
2022-09-24T13:57:01.272Z,100115.09
2022-09-24T13:59:31.205Z,100114.53
2022-09-24T14:01:59.002Z,100105.41
2022-09-24T14:04:26.808Z,100100.25
2022-09-24T14:06:57.352Z,100093.47
2022-09-24T14:09:31.870Z,100101.91
2022-09-24T14:12:01.682Z,100098.22
2022-09-24T14:14:32.078Z,100100.72
2022-09-24T14:17:17.394Z,100100.91
2022-09-24T14:19:45.062Z,100102.38
2022-09-24T14:22:17.183Z,100106.91
2022-09-24T14:24:54.019Z,100106.34
2022-09-24T14:27:24.280Z,100098.06
2022-09-24T14:29:57.012Z,100097.84
2022-09-24T14:32:30.019Z,100092.28
2022-09-24T14:35:00.831Z,100095.16
2022-09-24T14:37:32.876Z,100094.56
2022-09-24T14:40:04.781Z,100090.63
2022-09-24T14:42:37.881Z,100092.06
2022-09-24T14:45:10.085Z,100088.19
2022-09-24T14:47:38.505Z,100079.47
2022-09-24T14:50:27.975Z,100080.03
2022-09-24T14:52:57.682Z,100070.78
2022-09-24T14:55:38.105Z,100073.66
2022-09-24T14:58:05.905Z,100075.13
2022-09-24T15:00:46.644Z,100079.88
2022-09-24T15:03:17.302Z,100078.22
2022-09-24T15:05:46.014Z,100075.69
2022-09-24T15:08:28.372Z,100068.25
2022-09-24T15:10:57.649Z,100069.91
2022-09-24T15:13:27.512Z,100075.69
2022-09-24T15:16:20.962Z,100075.50
2022-09-24T15:18:58.221Z,100078.44
2022-09-24T15:21:27.780Z,100077.38
2022-09-24T15:23:57.483Z,100076.97
2022-09-24T15:26:30.304Z,100081.16
2022-09-24T15:28:58.412Z,100082.84
2022-09-24T15:31:27.438Z,100077.47
2022-09-24T15:33:56.009Z,100076.44
2022-09-24T15:36:23.818Z,100072.91
2022-09-24T15:38:52.271Z,100076.22
2022-09-24T15:41:20.881Z,100076.66
2022-09-24T15:43:48.453Z,100077.50
2022-09-24T15:46:16.154Z,100083.69
2022-09-24T15:48:45.539Z,100079.97
2022-09-24T15:51:15.691Z,100079.56
2022-09-24T15:53:43.513Z,100068.00
2022-09-24T15:56:11.283Z,100079.78
2022-09-24T15:58:38.912Z,100078.31
2022-09-24T16:01:07.748Z,100075.47
2022-09-24T16:03:35.384Z,100073.41
2022-09-24T16:06:04.510Z,100073.59
2022-09-24T16:08:32.145Z,100080.63
2022-09-24T16:10:59.784Z,100075.66
2022-09-24T16:13:27.474Z,100076.53
2022-09-24T16:15:55.184Z,100066.00
2022-09-24T16:18:25.990Z,100069.31
2022-09-24T16:20:53.896Z,100068.28
2022-09-24T16:23:22.782Z,100081.31
2022-09-24T16:25:58.047Z,100093.53
2022-09-24T16:28:26.832Z,100096.41
2022-09-24T16:30:54.612Z,100097.84
2022-09-24T16:33:22.951Z,100090.41
2022-09-24T16:35:51.050Z,100106.72
2022-09-24T16:38:22.556Z,100096.63
2022-09-24T16:41:00.806Z,100100.16
2022-09-24T16:43:28.558Z,100102.41
2022-09-24T16:46:01.528Z,100103.84
2022-09-24T16:48:29.279Z,100104.06
2022-09-24T16:51:03.888Z,100110.25
2022-09-24T16:53:35.159Z,100108.59
2022-09-24T16:56:16.107Z,100115.59
2022-09-24T16:58:45.015Z,100112.94
2022-09-24T17:01:14.724Z,100114.41
2022-09-24T17:03:43.000Z,100115.63
2022-09-24T17:06:19.271Z,100115.44
2022-09-24T17:09:04.368Z,100116.03
2022-09-24T17:11:33.928Z,100118.09
2022-09-24T17:14:01.967Z,100116.44
2022-09-24T17:16:30.453Z,100116.84
2022-09-24T17:18:58.221Z,100118.31
2022-09-24T17:21:25.892Z,100122.84
2022-09-24T17:23:53.869Z,100122.22
2022-09-24T17:26:22.834Z,100125.91
2022-09-24T17:28:54.144Z,100118.91
2022-09-24T17:31:23.955Z,100118.03
2022-09-24T17:33:56.964Z,100118.84
2022-09-24T17:36:25.800Z,100125.59
2022-09-24T17:38:53.741Z,100124.75
2022-09-24T17:41:21.324Z,100128.25
2022-09-24T17:43:49.082Z,100118.09
2022-09-24T17:46:21.597Z,100131.50
2022-09-24T17:48:52.322Z,100129.44
2022-09-24T17:51:21.997Z,100131.94
2022-09-24T17:53:51.600Z,100138.34
2022-09-24T17:56:20.988Z,100141.41
2022-09-24T17:58:48.995Z,100140.56
2022-09-24T18:01:20.169Z,100152.53
2022-09-24T18:03:49.489Z,100147.53
2022-09-24T18:06:17.061Z,100144.59
2022-09-24T18:08:46.296Z,100147.91
2022-09-24T18:11:17.337Z,100151.44
2022-09-24T18:13:45.589Z,100147.56
2022-09-24T18:16:14.750Z,100143.84
2022-09-24T18:18:44.909Z,100145.06
2022-09-24T18:21:14.452Z,100142.59
2022-09-24T18:23:42.485Z,100150.81
2022-09-24T18:26:12.074Z,100145.06
2022-09-24T18:28:41.461Z,100152.72
2022-09-24T18:31:10.703Z,100153.09
2022-09-24T18:33:40.769Z,100151.25
2022-09-24T18:36:12.174Z,100148.38
2022-09-24T18:38:39.881Z,100158.47
2022-09-24T18:41:10.151Z,100169.81
2022-09-24T18:43:38.403Z,100164.03
2022-09-24T18:46:07.891Z,100168.13
2022-09-24T18:48:36.122Z,100175.53
2022-09-24T18:51:05.048Z,100178.81
2022-09-24T18:53:35.690Z,100165.19
2022-09-24T18:56:09.127Z,100165.16
2022-09-24T18:58:36.716Z,100171.34
2022-09-24T19:01:09.208Z,100173.81
2022-09-24T19:03:39.543Z,100167.41
2022-09-24T19:06:08.801Z,100164.34
2022-09-24T19:08:37.796Z,100163.13
2022-09-24T19:11:09.118Z,100158.59
2022-09-24T19:13:37.577Z,100169.31
2022-09-24T19:16:07.543Z,100170.38
2022-09-24T19:18:36.373Z,100171.84
2022-09-24T19:21:06.419Z,100174.31
2022-09-24T19:23:38.299Z,100188.34
2022-09-24T19:26:07.596Z,100177.84
2022-09-24T19:28:36.726Z,100188.56
2022-09-24T19:31:06.260Z,100200.91
2022-09-24T19:33:34.721Z,100205.25
2022-09-24T19:36:04.542Z,100202.75
2022-09-24T19:38:35.608Z,100203.16
2022-09-24T19:41:06.819Z,100206.06
2022-09-24T19:43:35.296Z,100211.06
2022-09-24T19:46:05.308Z,100213.56
2022-09-24T19:48:36.840Z,100203.84
2022-09-24T19:51:07.190Z,100212.28
2022-09-24T19:53:34.789Z,100215.53
2022-09-24T19:56:05.019Z,100217.59
2022-09-24T19:58:32.720Z,100222.91
2022-09-24T20:01:02.871Z,100221.66
2022-09-24T20:03:32.146Z,100226.16
2022-09-24T20:05:59.909Z,100234.34
2022-09-24T20:08:28.190Z,100238.47
2022-09-24T20:10:55.728Z,100249.16
2022-09-24T20:13:25.833Z,100244.72
2022-09-24T20:15:59.097Z,100247.53
2022-09-24T20:18:27.113Z,100248.50
2022-09-24T20:20:55.306Z,100257.94
2022-09-24T20:23:23.475Z,100255.34
2022-09-24T20:26:09.145Z,100258.75
2022-09-24T20:28:38.448Z,100257.78
2022-09-24T20:31:10.884Z,100261.84
2022-09-24T20:33:41.027Z,100263.63
2022-09-24T20:36:15.436Z,100267.88
2022-09-24T20:38:45.960Z,100262.28
2022-09-24T20:41:15.682Z,100255.28
2022-09-24T20:43:45.488Z,100255.91
2022-09-24T20:46:16.951Z,100255.44
2022-09-24T20:48:45.225Z,100257.88
2022-09-24T20:51:14.891Z,100261.75
2022-09-24T20:53:42.678Z,100262.13
2022-09-24T20:56:10.649Z,100262.50
2022-09-24T20:58:39.949Z,100264.16
2022-09-24T21:01:10.742Z,100261.09
2022-09-24T21:03:45.574Z,100256.03
2022-09-24T21:06:14.976Z,100253.63
2022-09-24T21:08:44.346Z,100246.22
2022-09-24T21:11:13.218Z,100246.06
2022-09-24T21:13:42.162Z,100239.47
2022-09-24T21:16:11.864Z,100247.13
2022-09-24T21:18:42.861Z,100239.75
2022-09-24T21:21:12.140Z,100237.25
2022-09-24T21:23:40.244Z,100241.13
2022-09-24T21:26:12.586Z,100244.94
2022-09-24T21:28:40.598Z,100250.59
2022-09-24T21:31:08.331Z,100241.13
2022-09-24T21:33:37.713Z,100236.66
2022-09-24T21:36:07.595Z,100238.16
2022-09-24T21:38:35.281Z,100241.06
2022-09-24T21:41:08.312Z,100243.38
2022-09-24T21:43:36.412Z,100235.72
2022-09-24T21:46:06.446Z,100233.03
2022-09-24T21:48:35.220Z,100221.88
2022-09-24T21:51:06.054Z,100231.56
2022-09-24T21:53:34.651Z,100236.56
2022-09-24T21:56:03.237Z,100230.38
2022-09-24T21:58:31.323Z,100240.88
2022-09-24T22:01:03.197Z,100231.75
2022-09-24T22:03:32.850Z,100230.56
2022-09-24T22:06:04.753Z,100235.16
2022-09-24T22:08:32.414Z,100232.94
2022-09-24T22:11:04.701Z,100231.13
2022-09-24T22:13:33.499Z,100230.31
2022-09-24T22:16:01.801Z,100228.03
2022-09-24T22:18:30.377Z,100232.59
2022-09-24T22:20:58.743Z,100231.63
2022-09-24T22:23:27.687Z,100221.75
2022-09-24T22:25:56.983Z,100228.75
2022-09-24T22:28:25.441Z,100220.56
2022-09-24T22:30:53.977Z,100221.00
2022-09-24T22:33:39.845Z,100221.44
2022-09-24T22:36:08.021Z,100216.09
2022-09-24T22:38:37.511Z,100219.84
2022-09-24T22:41:08.102Z,100218.72
2022-09-24T22:43:36.076Z,100212.72
2022-09-24T22:46:06.315Z,100216.53
2022-09-24T22:48:34.638Z,100221.50
2022-09-24T22:51:03.235Z,100215.41
2022-09-24T22:53:33.837Z,100218.72
2022-09-24T22:56:07.364Z,100226.53
2022-09-24T22:58:35.455Z,100230.50
2022-09-24T23:01:07.541Z,100231.56
2022-09-24T23:03:35.875Z,100225.84
2022-09-24T23:06:03.629Z,100227.22
2022-09-24T23:08:33.205Z,100230.31
2022-09-24T23:11:08.481Z,100227.16
2022-09-24T23:13:36.635Z,100228.38
2022-09-24T23:16:08.627Z,100222.66
2022-09-24T23:18:36.226Z,100224.69
2022-09-24T23:21:06.228Z,100226.34
2022-09-24T23:23:34.274Z,100225.69
2022-09-24T23:26:04.914Z,100216.47
2022-09-24T23:28:35.480Z,100224.69
2022-09-24T23:31:03.993Z,100220.16
2022-09-24T23:33:33.573Z,100221.38
2022-09-24T23:36:01.858Z,100219.31
2022-09-24T23:38:30.710Z,100216.41
2022-09-24T23:40:58.744Z,100215.75
2022-09-24T23:43:27.051Z,100206.06
2022-09-24T23:45:56.351Z,100207.38
2022-09-24T23:48:24.872Z,100209.47
2022-09-24T23:50:52.505Z,100214.81
2022-09-24T23:53:21.703Z,100214.44
2022-09-24T23:55:50.143Z,100224.31
2022-09-24T23:58:20.002Z,100224.78
